Startpagina
METAR-TAF:

METAR-TAF

Vliegvelden :

Flughafen Düsseldorf

Düsseldorf, Duitsland

breedte: 51-18N, lengte: 006-46E, hoogte: 45 m

Actueel weer

Dit bericht is 43 minuten geleden gemaakt, om 07:50 UTC
Wind 10 kt uit het zuidzuidoosten
Temperatuur 9°C
Vochtigheid 81%
Druk 1023 hPa
Zicht 10 km of meer
geen wolken onder 1500 m en geen cumulonimbus

METAR: EDDL 180750Z 15010KT CAVOK 09/06 Q1023 NOSIG

Tijdstip: 10:33 (08:33 UTC)

Verwachting

Dit bericht is 3 uur en het 33 minuten geleden gemaakt, om 05:00 UTC
Verwachting geldig van 18 om 06 UTC tot 19 om 12 UTC
Wind 10 kt uit het zuidzuidoosten
Zicht 10 km of meer
geen wolken onder 1500 m en geen cumulonimbus
Kans 30% :
Tijdelijke
van 19 om 03 UTC tot 19 om 11 UTC
Gebroken wolken op 1200 ft
regen

TAF: EDDL 180500Z 1806/1912 15010KT CAVOK PROB30 TEMPO 1903/1911 RA BKN012

Waarnemingen en weersverwachtingen van meer dan 4000 vliegvelden (METAR en TAF).

De beschikbare stations zijn de gele en rode punten op de kaart.

Ga met uw muis naar het station om de naam te zien.

Klik dan om waarnemingen en weersverwachtingen te zien.

kaart wijzigen: klik op de groene knoppen met een zwart kruis om in te zoomen, op de groene knop met een streepje om uit te zoomen of op de groene pijlen voor aangrenzende kaarten.


METAR-TAF: